• Join FlightAware (Why Join?)
  • Login
  • US Flag 
11:08AM EDT


 

Airport Tracker/Info


-or-


 

Live Flight TrackerFlight Track Log ✈ SWA3206 ✈ 13-May-2013 ✈ KSAN - KPHX

Flight Track Log - Related Links

Times and Time Zones

All times are in EDT time to prevent confusion due to time zone crossing. See the SWA3206 flight status page for this flight to view local times or setup timezone preferences in your user account.

Time Position Orientation Groundspeed Altitude Reporting Facility
EDT Latitude Longitude Course Direction KTS MPH feet Rate Location/Type
06:57PM 32.7383 -117.2139 287° West 164 189 1,500  Level Los Angeles Center
06:58PM 32.7550 -117.2769 287° West 194 223 4,400 3,540 Climbing Los Angeles Center
06:59PM 32.7067 -117.3447 230° Southwest 261 300 8,900 3,660 Climbing Los Angeles Center
07:00PM 32.6553 -117.2725 130° Southeast 301 346 12,100 3,480 Climbing Los Angeles Center
07:01PM 32.6375 -117.1606 101° East 336 387 16,300 3,660 Climbing Los Angeles Center
07:02PM 32.6203 -117.0439 100° East 353 406 19,700 3,060 Climbing Los Angeles Center
07:03PM 32.6150 -116.9181 93° East 379 436 22,700 3,180 Climbing Los Angeles Center
07:04PM 32.6311 -116.7619 83° East 396 456 26,300 2,820 Climbing Los Angeles Center
07:05PM 32.6458 -116.6272 83° East 410 472 28,600 2,340 Climbing Los Angeles Center
07:06PM 32.6578 -116.4906 84° East 420 483 31,200 2,100 Climbing Los Angeles Center
07:07PM 32.6697 -116.3531 84° East 427 491 33,000 840 Climbing Los Angeles Center
07:08PM 32.6858 -116.1889 83° East 426 490 33,000  Level Los Angeles Center
07:09PM 32.6992 -116.0528 83° East 421 484 33,000  Level Los Angeles Center
07:10PM 32.7122 -115.9167 83° East 419 482 33,000  Level Los Angeles Center
07:11PM 32.7242 -115.7806 84° East 419 482 33,000  Level Los Angeles Center
07:12PM 32.7369 -115.6447 84° East 417 480 33,000  Level Los Angeles Center
07:13PM 32.7492 -115.5089 84° East 417 480 33,000  Level Los Angeles Center
07:14PM 32.7536 -115.3431 88° East 420 483 33,000  Level Los Angeles Center
07:15PM 32.7594 -115.2069 87° East 416 479 33,000 -360 Level Los Angeles Center
07:16PM 32.7617 -115.0692 89° East 417 480 32,300 -840 Descending Los Angeles Center
07:18PM 32.7644 -114.9325 89° East 414 476 31,400 -1,380 Descending Los Angeles Center
07:19PM 32.7664 -114.7950 89° East 416 479 29,500 -2,940 Descending Los Angeles Center
07:20PM 32.7689 -114.6558 89° East 423 487 25,400 -2,220 Descending Los Angeles Center
07:21PM 32.7697 -114.4872 90° East 425 489 25,000 -240 Descending Los Angeles Center
07:22PM 32.7689 -114.3483 90° East 422 486 25,000  Level Los Angeles Center
07:23PM 32.7694 -114.2094 90° East 421 484 25,000  Level Los Angeles Center
07:23PM 32.7739 -114.1094 87° East 426 490 25,000 -120 Level Albuquerque Center
07:24PM 32.7756 -113.9692 89° East 426 490 24,800 -540 Descending Albuquerque Center
07:26PM 32.8294 -113.8511 61° Northeast 414 476 24,000 -420 Descending Albuquerque Center
07:27PM 32.8903 -113.7153 62° Northeast 400 460 24,000  Level Albuquerque Center
07:28PM 32.9394 -113.6042 62° Northeast 386 444 24,000  Level Albuquerque Center
07:29PM 32.9875 -113.4928 63° Northeast 380 437 24,000  Level Albuquerque Center
07:30PM 33.0367 -113.3817 62° Northeast 379 436 24,000 -240 Level Albuquerque Center
07:31PM 33.0853 -113.2694 63° Northeast 380 437 23,600 -1,260 Descending Albuquerque Center
07:32PM 33.1325 -113.1597 63° Northeast 374 430 21,500 -2,100 Descending Albuquerque Center
07:33PM 33.1800 -113.0511 62° Northeast 370 426 19,400 -2,100 Descending Albuquerque Center
07:34PM 33.2253 -112.9456 63° Northeast 361 415 17,300 -1,680 Descending Albuquerque Center
07:35PM 33.2689 -112.8456 62° Northeast 346 398 16,000 -660 Descending Albuquerque Center
07:36PM 33.2819 -112.7478 81° East 311 358 16,000 -540 Level Albuquerque Center
07:37PM 33.2836 -112.6306 89° East 296 341 15,000 -1,140 Descending Albuquerque Center
07:38PM 33.2869 -112.5436 87° East 285 328 13,700 -1,320 Descending Albuquerque Center
07:39PM 33.2894 -112.4464 88° East 289 333 12,300 -1,260 Descending Albuquerque Center
07:40PM 33.2917 -112.3525 88° East 288 331 11,200 -780 Descending Albuquerque Center
07:41PM 33.2969 -112.2678 86° East 271 312 10,800 -780 Descending Albuquerque Center
07:42PM 33.3039 -112.1875 84° East 253 291 9,700 -960 Descending Albuquerque Center
07:43PM 33.3119 -112.0925 84° East 247 284 8,900 -1,080 Descending Albuquerque Center
07:44PM 33.3300 -112.0161 74° East 243 280 7,600 -1,200 Descending Albuquerque Center
07:45PM 33.3481 -111.9397 74° East 241 277 6,500 -1,140 Descending Albuquerque Center
07:46PM 33.3478 -111.8622 90° East 239 275 5,300 -1,080 Descending Albuquerque Center
07:47PM 33.4006 -111.8406 19° North 221 254 4,400 -1,020 Descending Albuquerque Center
07:48PM 33.4289 -111.8844 308° West 199 229 3,200 -1,080 Descending Albuquerque Center
07:49PM 33.4300 -111.9347 272° West 169 194 2,200 -840 Descending Albuquerque Center
07:50PM 33.4303 -111.9800 270° West 152 175 1,500 -540 Descending Albuquerque Center
07:51PM 33.4314 -112.0361 271° West 150 173 1,100 -420 Descending Albuquerque Center